sensor_id;sensor_type;location;lat;lon;timestamp;pressure;altitude;pressure_sealevel;temperature;humidity
53754;BME280;39667;52.274;20.964;2023-02-21T21:47:56;100034.53;;;4.09;77.73
53754;BME280;39667;52.274;20.964;2023-02-21T21:53:21;100038.39;;;4.10;77.62
53754;BME280;39667;52.274;20.964;2023-02-21T21:55:56;100041.54;;;4.11;77.78
53754;BME280;39667;52.274;20.964;2023-02-21T21:58:26;100041.61;;;4.18;77.86
53754;BME280;39667;52.274;20.964;2023-02-21T22:00:54;100042.77;;;4.28;77.83
53754;BME280;39667;52.274;20.964;2023-02-21T22:03:27;100045.11;;;4.36;77.80
53754;BME280;39667;52.274;20.964;2023-02-21T22:06:25;100049.17;;;4.41;77.73
53754;BME280;39667;52.274;20.964;2023-02-21T22:08:53;100056.14;;;4.40;77.68
53754;BME280;39667;52.274;20.964;2023-02-21T22:11:23;100062.29;;;4.43;77.80
53754;BME280;39667;52.274;20.964;2023-02-21T22:13:51;100063.93;;;4.50;77.88
53754;BME280;39667;52.274;20.964;2023-02-21T22:16:19;100065.88;;;4.53;77.71
53754;BME280;39667;52.274;20.964;2023-02-21T22:18:47;100068.17;;;4.55;77.79
53754;BME280;39667;52.274;20.964;2023-02-21T22:21:21;100072.88;;;4.56;77.74
53754;BME280;39667;52.274;20.964;2023-02-21T22:23:48;100075.84;;;4.55;77.86
53754;BME280;39667;52.274;20.964;2023-02-21T22:26:21;100080.71;;;4.55;77.67
53754;BME280;39667;52.274;20.964;2023-02-21T22:28:50;100082.63;;;4.54;77.83
53754;BME280;39667;52.274;20.964;2023-02-21T22:31:26;100081.20;;;4.53;77.68
53754;BME280;39667;52.274;20.964;2023-02-21T22:34:18;100083.48;;;4.52;77.78
53754;BME280;39667;52.274;20.964;2023-02-21T22:36:54;100088.48;;;4.48;77.82
53754;BME280;39667;52.274;20.964;2023-02-21T22:39:44;100090.09;;;4.50;77.80
53754;BME280;39667;52.274;20.964;2023-02-21T22:42:21;100088.14;;;4.48;77.86
53754;BME280;39667;52.274;20.964;2023-02-21T22:49:22;100098.15;;;4.39;77.94
53754;BME280;39667;52.274;20.964;2023-02-21T22:52:10;100099.89;;;4.38;77.94
53754;BME280;39667;52.274;20.964;2023-02-21T22:54:53;100110.16;;;4.36;77.92
53754;BME280;39667;52.274;20.964;2023-02-21T22:57:40;100116.59;;;4.34;78.09
53754;BME280;39667;52.274;20.964;2023-02-21T23:00:17;100112.23;;;4.35;77.95
53754;BME280;39667;52.274;20.964;2023-02-21T23:03:09;100115.90;;;4.36;78.11
53754;BME280;39667;52.274;20.964;2023-02-21T23:05:53;100119.54;;;4.34;78.03
53754;BME280;39667;52.274;20.964;2023-02-21T23:21:47;100141.80;;;4.16;78.37
53754;BME280;39667;52.274;20.964;2023-02-21T23:24:20;100142.81;;;4.12;78.47
53754;BME280;39667;52.274;20.964;2023-02-21T23:26:49;100146.66;;;4.13;78.56
53754;BME280;39667;52.274;20.964;2023-02-21T23:29:24;100151.19;;;4.13;78.43
53754;BME280;39667;52.274;20.964;2023-02-21T23:31:52;100153.75;;;4.10;78.43
53754;BME280;39667;52.274;20.964;2023-02-21T23:34:25;100159.47;;;4.07;78.55
53754;BME280;39667;52.274;20.964;2023-02-21T23:37:09;100163.67;;;4.08;78.72
53754;BME280;39667;52.274;20.964;2023-02-21T23:39:42;100168.23;;;4.10;78.69
53754;BME280;39667;52.274;20.964;2023-02-21T23:42:16;100167.66;;;4.07;78.43
53754;BME280;39667;52.274;20.964;2023-02-21T23:44:58;100173.13;;;4.00;78.42
53754;BME280;39667;52.274;20.964;2023-02-21T23:47:26;100176.45;;;3.88;78.46
53754;BME280;39667;52.274;20.964;2023-02-21T23:49:53;100179.29;;;3.79;78.65
53754;BME280;39667;52.274;20.964;2023-02-21T23:52:58;100180.77;;;3.75;78.87
53754;BME280;39667;52.274;20.964;2023-02-21T23:55:31;100180.87;;;3.69;78.88
53754;BME280;39667;52.274;20.964;2023-02-21T23:58:03;100184.65;;;3.65;79.07
